Metar z połowy godziny Komunikat METAR ze strony awiacja.imgw.pl Metar G00 EPKT METAR EPKT 230830Z 28009KT 9999 -SHRA FEW011 SCT024CB BKN027 06/01 Q1021 =